createdAt,value
2022-10-22T00:02:20.718Z,98515.98
2022-10-22T00:07:23.015Z,98519.88
2022-10-22T00:12:25.854Z,98518.23
2022-10-22T00:17:30.064Z,98512.25
2022-10-22T00:22:32.046Z,98517.23
2022-10-22T00:27:33.841Z,98515.69
2022-10-22T00:32:35.638Z,98514.09
2022-10-22T00:37:37.665Z,98505.54
2022-10-22T00:42:39.903Z,98500.23
2022-10-22T00:47:49.135Z,98494.19
2022-10-22T00:52:51.643Z,98495.18
2022-10-22T00:57:55.963Z,98493.45
2022-10-22T01:02:58.454Z,98490.54
2022-10-22T01:08:00.461Z,98493.51
2022-10-22T01:13:21.060Z,98501.86
2022-10-22T01:19:05.930Z,98497.33
2022-10-22T01:24:20.673Z,98490.01
2022-10-22T01:29:30.496Z,98485.13
2022-10-22T01:34:33.701Z,98481.06
2022-10-22T01:39:38.691Z,98480.20
2022-10-22T01:44:41.521Z,98477.83
2022-10-22T01:50:08.596Z,98469.92
2022-10-22T01:55:38.569Z,98456.65
2022-10-22T02:00:47.519Z,98455.59
2022-10-22T02:05:54.202Z,98462.27
2022-10-22T02:10:58.655Z,98465.23
2022-10-22T02:16:03.209Z,98460.96
2022-10-22T02:26:54.677Z,98459.46
2022-10-22T02:31:58.881Z,98451.77
2022-10-22T02:37:03.578Z,98461.48
2022-10-22T02:42:05.811Z,98475.33
2022-10-22T02:47:07.749Z,98480.73
2022-10-22T02:52:09.598Z,98487.91
2022-10-22T03:02:26.631Z,98503.23
2022-10-22T03:07:28.609Z,98504.56
2022-10-22T03:12:30.726Z,98500.56
2022-10-22T03:17:32.656Z,98492.00
2022-10-22T03:22:36.625Z,98489.45
2022-10-22T03:27:40.229Z,98473.12
2022-10-22T03:32:42.280Z,98458.32
2022-10-22T03:37:44.150Z,98467.52
2022-10-22T03:42:46.183Z,98471.05
2022-10-22T03:47:48.178Z,98466.86
2022-10-22T03:52:50.178Z,98469.69
2022-10-22T03:58:04.320Z,98485.01
2022-10-22T04:03:10.789Z,98482.13
2022-10-22T04:08:12.553Z,98492.75
2022-10-22T04:13:14.448Z,98495.12
2022-10-22T04:18:16.366Z,98477.94
2022-10-22T04:23:18.217Z,98472.20
2022-10-22T04:28:20.158Z,98468.46
2022-10-22T04:33:22.136Z,98451.23
2022-10-22T04:38:24.050Z,98441.52
2022-10-22T04:43:26.055Z,98434.71
2022-10-22T04:48:27.839Z,98423.88
2022-10-22T04:53:29.693Z,98427.85
2022-10-22T04:58:31.710Z,98431.10
2022-10-22T05:03:33.665Z,98432.06
2022-10-22T05:08:36.051Z,98443.45
2022-10-22T05:13:38.469Z,98455.08
2022-10-22T05:18:42.823Z,98462.74
2022-10-22T05:23:46.295Z,98465.65
2022-10-22T05:28:50.261Z,98462.98
2022-10-22T05:33:52.249Z,98451.69
2022-10-22T05:38:54.513Z,98448.92
2022-10-22T05:44:00.526Z,98464.62
2022-10-22T05:49:04.998Z,98468.44
2022-10-22T05:54:29.289Z,98453.02
2022-10-22T05:59:39.297Z,98461.79
2022-10-22T06:04:41.050Z,98483.52
2022-10-22T06:09:43.116Z,98498.17
2022-10-22T06:14:45.239Z,98501.61
2022-10-22T06:19:47.127Z,98498.36
2022-10-22T06:24:58.500Z,98510.94
2022-10-22T06:30:00.719Z,98517.68
2022-10-22T06:35:02.588Z,98510.82
2022-10-22T06:40:05.055Z,98513.90
2022-10-22T06:45:08.099Z,98515.11
2022-10-22T06:50:10.168Z,98517.49
2022-10-22T06:55:32.321Z,98527.49
2022-10-22T07:05:41.972Z,98534.89
2022-10-22T07:10:43.780Z,98534.45
2022-10-22T07:15:45.684Z,98538.97
2022-10-22T07:20:50.751Z,98539.05
2022-10-22T07:25:53.096Z,98528.75
2022-10-22T07:30:55.098Z,98533.46
2022-10-22T07:36:02.278Z,98528.13
2022-10-22T07:41:04.883Z,98524.52
2022-10-22T07:46:08.727Z,98534.73
2022-10-22T07:51:10.679Z,98544.38
2022-10-22T07:56:12.575Z,98529.39
2022-10-22T08:01:14.599Z,98514.32
2022-10-22T08:06:17.929Z,98514.02
2022-10-22T08:11:19.825Z,98532.04
2022-10-22T08:16:22.980Z,98537.41
2022-10-22T08:21:25.199Z,98533.80
2022-10-22T08:26:27.133Z,98531.44
2022-10-22T08:31:29.310Z,98532.41
2022-10-22T08:36:31.910Z,98551.48
2022-10-22T08:41:46.610Z,98572.62
2022-10-22T08:47:20.053Z,98566.59
2022-10-22T08:52:49.302Z,98561.83
2022-10-22T08:58:27.300Z,98555.02
2022-10-22T09:04:28.405Z,98546.57
2022-10-22T09:09:35.972Z,98549.11
2022-10-22T09:14:46.868Z,98548.73
2022-10-22T09:19:49.050Z,98566.38
2022-10-22T09:25:08.298Z,98576.25
2022-10-22T09:30:27.056Z,98574.52
2022-10-22T09:35:33.403Z,98573.63
2022-10-22T09:40:48.677Z,98574.41
2022-10-22T09:45:58.275Z,98578.77
2022-10-22T09:51:18.225Z,98577.16
2022-10-22T09:56:35.502Z,98583.14
2022-10-22T10:01:40.968Z,98583.89
2022-10-22T10:06:44.562Z,98575.17
2022-10-22T10:12:03.668Z,98575.93
2022-10-22T10:17:18.581Z,98558.98
2022-10-22T10:22:45.011Z,98560.31
2022-10-22T10:27:55.829Z,98551.84
2022-10-22T10:33:39.136Z,98545.88
2022-10-22T10:39:20.314Z,98545.96
2022-10-22T10:44:48.035Z,98549.04
2022-10-22T10:49:55.029Z,98550.64
2022-10-22T10:55:25.362Z,98540.65
2022-10-22T11:00:36.033Z,98542.50
2022-10-22T11:05:53.297Z,98541.05
2022-10-22T11:10:58.828Z,98536.14
2022-10-22T11:16:26.666Z,98527.23
2022-10-22T11:21:55.978Z,98522.23
2022-10-22T11:27:07.013Z,98517.17
2022-10-22T11:32:18.870Z,98509.89
2022-10-22T11:37:24.822Z,98520.15
2022-10-22T11:42:57.312Z,98532.64
2022-10-22T11:48:12.652Z,98530.72
2022-10-22T11:53:14.441Z,98533.59
2022-10-22T11:58:28.477Z,98528.73
2022-10-22T12:03:33.300Z,98526.98
2022-10-22T12:08:46.889Z,98532.86
2022-10-22T12:14:01.046Z,98535.77
2022-10-22T12:19:12.928Z,98529.45
2022-10-22T12:24:19.313Z,98530.69
2022-10-22T12:29:30.275Z,98531.70
2022-10-22T12:34:51.414Z,98528.55
2022-10-22T12:39:53.182Z,98523.08
2022-10-22T12:44:56.558Z,98513.42
2022-10-22T12:49:58.966Z,98508.19
2022-10-22T12:55:01.028Z,98505.89
2022-10-22T13:00:04.187Z,98500.29
2022-10-22T13:05:30.979Z,98499.84
2022-10-22T13:10:35.333Z,98498.23
2022-10-22T13:15:39.572Z,98509.38
2022-10-22T13:21:01.890Z,98515.53
2022-10-22T13:26:14.096Z,98519.23
2022-10-22T13:31:19.557Z,98511.31
2022-10-22T13:36:22.690Z,98507.23
2022-10-22T13:41:32.203Z,98508.70
2022-10-22T13:46:40.598Z,98511.05
2022-10-22T13:51:43.229Z,98507.80
2022-10-22T13:56:45.782Z,98519.49
2022-10-22T14:01:48.167Z,98527.89
2022-10-22T14:06:50.329Z,98531.95
2022-10-22T14:11:52.266Z,98536.52
2022-10-22T14:16:54.464Z,98532.33
2022-10-22T14:21:56.540Z,98527.75
2022-10-22T14:26:58.965Z,98534.86
2022-10-22T14:32:02.417Z,98539.23
2022-10-22T14:37:04.209Z,98539.52
2022-10-22T14:42:06.019Z,98529.93
2022-10-22T14:47:08.242Z,98526.98
2022-10-22T14:52:30.265Z,98534.20
2022-10-22T14:57:45.304Z,98533.46
2022-10-22T15:02:48.116Z,98531.63
2022-10-22T15:07:49.959Z,98533.16
2022-10-22T15:12:52.190Z,98537.30
2022-10-22T15:17:54.268Z,98540.64
2022-10-22T15:22:56.789Z,98545.47
2022-10-22T15:28:04.778Z,98554.27
2022-10-22T15:33:11.705Z,98559.61
2022-10-22T15:38:14.076Z,98561.71
2022-10-22T15:43:15.894Z,98564.98
2022-10-22T15:48:21.537Z,98569.58
2022-10-22T15:53:23.414Z,98573.59
2022-10-22T15:58:25.393Z,98580.65
2022-10-22T16:03:27.413Z,98590.13
2022-10-22T16:08:29.864Z,98597.02
2022-10-22T16:13:31.927Z,98580.73
2022-10-22T16:18:34.037Z,98582.30
2022-10-22T16:23:36.521Z,98597.90
2022-10-22T16:28:38.953Z,98611.43
2022-10-22T16:33:47.895Z,98621.80
2022-10-22T16:38:52.086Z,98624.66
2022-10-22T16:43:55.495Z,98635.63
2022-10-22T16:48:57.901Z,98648.14
2022-10-22T16:53:59.929Z,98661.00
2022-10-22T16:59:01.949Z,98663.95
2022-10-22T17:04:04.151Z,98669.81
2022-10-22T17:09:06.315Z,98669.27
2022-10-22T17:14:08.603Z,98674.23
2022-10-22T17:19:15.358Z,98674.66
2022-10-22T17:24:18.390Z,98683.17
2022-10-22T17:29:29.969Z,98685.29
2022-10-22T17:34:33.400Z,98687.92
2022-10-22T17:39:36.592Z,98691.36
2022-10-22T17:44:38.507Z,98693.62
2022-10-22T17:49:41.233Z,98697.41
2022-10-22T17:54:43.593Z,98700.41
2022-10-22T17:59:45.499Z,98698.66
2022-10-22T18:04:52.231Z,98702.10
2022-10-22T18:09:54.170Z,98702.69
2022-10-22T18:15:06.360Z,98708.71
2022-10-22T18:20:21.693Z,98714.02
2022-10-22T18:25:24.092Z,98713.55
2022-10-22T18:30:26.225Z,98710.03
2022-10-22T18:35:32.207Z,98704.73
2022-10-22T18:40:36.014Z,98705.03
2022-10-22T18:45:45.998Z,98709.92
2022-10-22T18:50:47.825Z,98719.52
2022-10-22T18:55:49.617Z,98737.55
2022-10-22T19:00:52.038Z,98740.41
2022-10-22T19:06:07.484Z,98742.64
2022-10-22T19:11:15.427Z,98741.77
2022-10-22T19:16:24.106Z,98749.65
2022-10-22T19:21:26.361Z,98754.73
2022-10-22T19:26:30.538Z,98759.69
2022-10-22T19:31:32.672Z,98769.64
2022-10-22T19:36:55.238Z,98781.45
2022-10-22T19:42:12.406Z,98789.34
2022-10-22T19:47:15.690Z,98794.48
2022-10-22T19:52:17.666Z,98800.12
2022-10-22T19:57:19.567Z,98804.05
2022-10-22T20:02:23.162Z,98804.06
2022-10-22T20:07:25.238Z,98807.94
2022-10-22T20:12:27.133Z,98806.34
2022-10-22T20:17:29.070Z,98805.39
2022-10-22T20:22:31.266Z,98810.02
2022-10-22T20:27:33.044Z,98812.42
2022-10-22T20:32:39.288Z,98811.41
2022-10-22T20:37:41.710Z,98814.28
2022-10-22T20:42:44.241Z,98817.98
2022-10-22T20:47:51.622Z,98819.23
2022-10-22T20:53:00.519Z,98825.45
2022-10-22T20:58:02.441Z,98829.02
2022-10-22T21:03:04.734Z,98829.11
2022-10-22T21:08:06.940Z,98831.53
2022-10-22T21:13:14.068Z,98837.71
2022-10-22T21:18:16.397Z,98834.48
2022-10-22T21:23:18.286Z,98839.52
2022-10-22T21:28:20.235Z,98843.34
2022-10-22T21:33:22.157Z,98849.19
2022-10-22T21:38:25.382Z,98854.00
2022-10-22T21:43:27.322Z,98855.16
2022-10-22T21:48:29.207Z,98859.36
2022-10-22T21:53:31.009Z,98855.41
2022-10-22T21:58:36.310Z,98855.59
2022-10-22T22:03:38.491Z,98860.45
2022-10-22T22:08:40.576Z,98858.52
2022-10-22T22:13:42.994Z,98852.89
2022-10-22T22:18:44.827Z,98852.70
2022-10-22T22:23:49.124Z,98860.47
2022-10-22T22:28:51.185Z,98861.05
2022-10-22T22:34:02.344Z,98865.06
2022-10-22T22:39:06.797Z,98874.81
2022-10-22T22:44:08.717Z,98884.23
2022-10-22T22:49:12.991Z,98889.93
2022-10-22T22:54:14.862Z,98891.02
2022-10-22T22:59:16.776Z,98888.76
2022-10-22T23:04:23.624Z,98891.31
2022-10-22T23:09:28.428Z,98899.71
2022-10-22T23:14:33.144Z,98905.45
2022-10-22T23:19:35.155Z,98909.20
2022-10-22T23:24:38.174Z,98915.32
2022-10-22T23:29:40.136Z,98916.36
2022-10-22T23:34:42.370Z,98918.09
2022-10-22T23:39:45.246Z,98926.27
2022-10-22T23:50:23.621Z,98936.09
2022-10-22T23:55:25.694Z,98941.34
